Time;durP1;ratioP1;P1;durP2;ratioP2;P2;SDS_P1;SDS_P2;PMS_P1;PMS_P2;Temp;Humidity;BMP_temperature;BMP_pressure;BME280_temperature;BME280_humidity;BME280_pressure;Samples;Min_cycle;Max_cycle;Signal;HPM_P1;HPM_P2
2021/01/31 00:00:39;;;;;;;4.80;3.10;;;22.40;46.30;;;;;;5039994;28;45388;-56
2021/01/31 00:03:26;;;;;;;4.90;2.80;;;22.40;46.30;;;;;;5053636;28;45445;-57
2021/01/31 00:05:53;;;;;;;5.45;3.28;;;22.40;46.30;;;;;;5050184;28;45535;-56
2021/01/31 00:08:20;;;;;;;5.10;2.80;;;22.30;46.30;;;;;;5034369;28;45438;-56
2021/01/31 00:10:46;;;;;;;4.78;2.92;;;22.30;46.30;;;;;;5045022;28;45395;-56
2021/01/31 00:13:12;;;;;;;5.70;2.38;;;22.30;46.20;;;;;;5047586;28;45365;-57
2021/01/31 00:15:40;;;;;;;4.50;2.92;;;22.30;46.30;;;;;;5043387;28;45724;-57
2021/01/31 00:18:06;;;;;;;4.97;2.83;;;22.30;46.20;;;;;;5057739;28;45306;-59
2021/01/31 00:20:32;;;;;;;4.30;2.65;;;22.30;46.20;;;;;;5025957;28;46412;-57
2021/01/31 00:22:58;;;;;;;4.50;3.00;;;22.30;46.20;;;;;;5041793;28;45368;-57
2021/01/31 00:25:24;;;;;;;5.82;3.45;;;22.30;46.20;;;;;;5047128;28;45456;-56
2021/01/31 00:27:50;;;;;;;4.00;2.28;;;22.30;46.20;;;;;;5046792;28;45506;-56
2021/01/31 00:30:20;;;;;;;4.60;2.65;;;22.30;46.20;;;;;;5034224;28;45470;-57
2021/01/31 00:32:46;;;;;;;4.32;2.50;;;22.30;46.20;;;;;;5048630;28;45299;-56
2021/01/31 00:35:12;;;;;;;4.80;2.70;;;22.20;46.10;;;;;;5036258;28;46363;-56
2021/01/31 00:37:38;;;;;;;4.50;2.97;;;22.20;46.20;;;;;;5042376;28;45461;-57
2021/01/31 00:40:04;;;;;;;4.38;2.50;;;22.20;46.10;;;;;;5031510;28;46382;-57
2021/01/31 00:42:30;;;;;;;4.45;2.67;;;22.20;46.20;;;;;;5062474;28;45762;-57
2021/01/31 00:44:56;;;;;;;6.43;3.25;;;22.20;46.10;;;;;;5045575;28;45862;-56
2021/01/31 00:47:22;;;;;;;4.88;3.15;;;22.20;46.10;;;;;;5029593;28;45697;-56
2021/01/31 00:49:48;;;;;;;5.32;3.05;;;22.20;46.10;;;;;;5045387;28;46154;-55
2021/01/31 00:52:14;;;;;;;4.45;2.60;;;22.10;46.10;;;;;;5051893;28;45371;-57
2021/01/31 00:54:40;;;;;;;4.80;3.03;;;22.20;46.10;;;;;;5034939;28;45400;-56
2021/01/31 00:57:06;;;;;;;4.68;2.72;;;22.20;46.10;;;;;;5047864;28;45576;-56
2021/01/31 00:59:31;;;;;;;4.40;2.72;;;22.20;46.10;;;;;;5034705;28;46341;-56
2021/01/31 01:01:58;;;;;;;5.68;3.20;;;22.20;46.10;;;;;;5039280;28;45508;-56
2021/01/31 01:04:23;;;;;;;5.45;3.00;;;22.10;46.10;;;;;;5043498;28;45463;-56
2021/01/31 01:06:49;;;;;;;4.40;2.90;;;22.20;46.10;;;;;;5041370;28;45677;-57
2021/01/31 01:09:15;;;;;;;4.60;2.80;;;22.20;46.10;;;;;;5034048;28;45418;-56
2021/01/31 01:11:41;;;;;;;4.80;3.13;;;22.10;46.00;;;;;;5041985;28;45473;-56
2021/01/31 01:14:07;;;;;;;5.65;3.20;;;22.10;46.00;;;;;;5046394;28;45293;-56
2021/01/31 01:16:33;;;;;;;4.47;2.90;;;22.10;46.00;;;;;;5021630;28;45521;-57
2021/01/31 01:18:59;;;;;;;4.80;2.97;;;22.10;46.00;;;;;;5043978;28;46135;-56
2021/01/31 01:21:25;;;;;;;4.82;3.00;;;22.10;46.00;;;;;;5046970;28;45348;-56
2021/01/31 01:23:51;;;;;;;5.10;2.90;;;22.10;46.00;;;;;;5045826;28;45390;-56
2021/01/31 01:26:17;;;;;;;4.60;2.92;;;22.10;46.00;;;;;;5039996;28;46180;-56
2021/01/31 01:28:42;;;;;;;4.68;3.20;;;22.00;46.00;;;;;;5028246;28;45690;-56
2021/01/31 01:31:08;;;;;;;5.47;3.35;;;22.00;46.00;;;;;;5050340;28;45466;-56
2021/01/31 01:33:34;;;;;;;3.90;2.90;;;22.00;46.00;;;;;;5049408;28;45474;-57
2021/01/31 01:35:59;;;;;;;5.70;3.55;;;22.00;46.00;;;;;;5049891;28;45483;-56
2021/01/31 01:38:25;;;;;;;5.05;3.10;;;22.00;46.00;;;;;;5046049;28;45758;-56
2021/01/31 01:40:54;;;;;;;5.57;3.38;;;22.00;46.00;;;;;;5037999;28;45429;-57
2021/01/31 01:43:19;;;;;;;4.82;3.20;;;22.00;46.00;;;;;;5050208;28;45396;-57
2021/01/31 01:45:47;;;;;;;6.20;3.65;;;22.00;46.00;;;;;;5043125;28;45346;-57
2021/01/31 01:48:16;;;;;;;5.18;3.60;;;22.00;46.00;;;;;;5040350;28;46213;-57
2021/01/31 01:50:50;;;;;;;4.70;3.42;;;22.00;46.00;;;;;;5045495;28;45401;-56
2021/01/31 01:53:16;;;;;;;5.80;3.53;;;22.00;46.00;;;;;;5039937;28;45549;-56
2021/01/31 01:56:10;;;;;;;5.38;3.65;;;21.90;46.00;;;;;;5046056;28;45621;-56
2021/01/31 01:58:35;;;;;;;5.75;3.50;;;22.00;46.00;;;;;;5061737;28;46662;-56
2021/01/31 02:01:01;;;;;;;5.35;3.45;;;21.90;46.00;;;;;;5045128;28;45514;-56
2021/01/31 02:03:29;;;;;;;5.30;3.55;;;21.90;46.00;;;;;;5044557;28;46194;-56
2021/01/31 02:06:15;;;;;;;5.80;4.28;;;21.90;46.00;;;;;;5058847;28;45676;-56
2021/01/31 02:08:41;;;;;;;5.55;3.50;;;21.90;46.00;;;;;;5047982;28;46046;-56
2021/01/31 02:11:12;;;;;;;5.15;3.63;;;21.90;46.10;;;;;;5047866;28;45565;-56
2021/01/31 02:13:38;;;;;;;5.40;3.63;;;21.90;46.10;;;;;;5048576;28;45308;-56
2021/01/31 02:16:03;;;;;;;6.28;3.92;;;21.90;46.00;;;;;;5048825;28;45398;-57
2021/01/31 02:18:36;;;;;;;6.55;3.60;;;21.90;46.00;;;;;;5048393;28;45766;-56
2021/01/31 02:21:36;;;;;;;6.13;4.30;;;21.90;46.10;;;;;;5048395;28;45383;-56
2021/01/31 02:24:24;;;;;;;6.30;4.18;;;21.90;46.00;;;;;;5048816;28;45335;-56
2021/01/31 02:27:24;;;;;;;6.40;4.20;;;21.90;46.00;;;;;;5048761;28;45270;-56
2021/01/31 02:29:52;;;;;;;7.03;4.43;;;21.90;46.00;;;;;;5049679;28;46526;-56
2021/01/31 02:32:36;;;;;;;6.70;4.55;;;21.80;46.10;;;;;;5049239;28;45270;-56
2021/01/31 02:35:07;;;;;;;6.45;4.40;;;21.80;46.10;;;;;;5049444;28;45408;-58
2021/01/31 02:37:55;;;;;;;6.50;3.78;;;21.80;46.10;;;;;;5048925;28;45542;-57
2021/01/31 02:40:25;;;;;;;6.22;3.75;;;21.80;46.00;;;;;;5049316;28;46333;-56
2021/01/31 02:42:53;;;;;;;5.53;3.88;;;21.80;46.10;;;;;;5048797;28;45401;-57
2021/01/31 02:45:25;;;;;;;6.18;4.85;;;21.80;46.10;;;;;;5068553;28;45243;-56
2021/01/31 02:48:14;;;;;;;6.10;4.50;;;21.80;46.10;;;;;;5068907;28;45597;-56
2021/01/31 02:50:45;;;;;;;6.60;4.43;;;21.80;46.00;;;;;;5069129;28;46417;-57
2021/01/31 02:53:15;;;;;;;5.60;4.13;;;21.80;46.10;;;;;;5052338;28;45358;-55
2021/01/31 02:55:46;;;;;;;6.05;4.25;;;21.80;46.10;;;;;;5051600;28;45488;-56
2021/01/31 02:58:16;;;;;;;6.57;4.30;;;21.80;46.10;;;;;;5068620;28;45461;-55
2021/01/31 03:00:45;;;;;;;6.07;4.20;;;21.70;46.00;;;;;;5051178;28;45489;-57
2021/01/31 03:03:18;;;;;;;6.00;4.25;;;21.70;46.00;;;;;;5067036;28;45449;-56
2021/01/31 03:05:46;;;;;;;5.22;3.92;;;21.70;46.00;;;;;;5068870;28;45256;-56
2021/01/31 03:08:29;;;;;;;6.35;4.28;;;21.80;46.00;;;;;;5051685;28;45513;-56
2021/01/31 03:10:57;;;;;;;6.28;4.30;;;21.80;45.90;;;;;;5052919;28;46278;-56
2021/01/31 03:13:32;;;;;;;6.30;4.50;;;21.90;45.80;;;;;;5051426;28;45432;-56
2021/01/31 03:16:25;;;;;;;6.43;4.05;;;22.00;45.70;;;;;;5052321;28;45383;-56
2021/01/31 03:19:12;;;;;;;5.70;3.85;;;22.00;45.60;;;;;;5068239;28;45388;-57
2021/01/31 03:21:39;;;;;;;6.75;4.65;;;22.10;45.60;;;;;;5068956;28;45425;-57
2021/01/31 03:24:24;;;;;;;6.43;4.53;;;22.10;45.50;;;;;;5050998;28;45264;-56
2021/01/31 03:27:06;;;;;;;6.70;4.57;;;22.20;45.40;;;;;;5067943;28;45338;-56
2021/01/31 03:29:32;;;;;;;8.02;4.78;;;22.10;45.20;;;;;;5068100;28;45561;-57
2021/01/31 03:32:04;;;;;;;5.65;3.92;;;22.20;45.20;;;;;;5050431;28;46532;-56
2021/01/31 03:34:42;;;;;;;7.05;4.72;;;22.30;45.20;;;;;;5050577;28;45300;-56
2021/01/31 03:37:08;;;;;;;6.45;4.35;;;22.30;45.10;;;;;;5034719;28;45338;-56
2021/01/31 03:39:34;;;;;;;6.50;3.88;;;22.30;45.00;;;;;;5031113;28;45663;-56
2021/01/31 03:41:59;;;;;;;7.55;4.32;;;22.40;45.00;;;;;;5030428;28;45926;-56
2021/01/31 03:44:25;;;;;;;5.70;3.95;;;22.40;44.90;;;;;;5056651;28;45327;-56
2021/01/31 03:47:01;;;;;;;6.05;4.10;;;22.40;44.90;;;;;;5047216;28;45304;-57
2021/01/31 03:49:28;;;;;;;5.95;3.92;;;22.40;44.90;;;;;;5031577;28;45241;-57
2021/01/31 03:51:54;;;;;;;6.47;4.53;;;22.40;44.90;;;;;;5046896;28;46327;-57
2021/01/31 03:54:20;;;;;;;6.32;4.05;;;22.50;44.90;;;;;;5030482;28;45248;-55
2021/01/31 03:57:01;;;;;;;7.00;4.68;;;22.40;44.80;;;;;;5030504;28;45419;-57
2021/01/31 03:59:39;;;;;;;6.10;4.10;;;22.50;44.80;;;;;;5045127;28;45238;-55
2021/01/31 04:02:05;;;;;;;6.75;4.72;;;22.50;44.70;;;;;;5049627;28;45394;-55
2021/01/31 04:04:38;;;;;;;6.45;4.50;;;22.50;44.70;;;;;;5049615;28;45717;-56
2021/01/31 04:07:08;;;;;;;5.47;4.18;;;22.50;44.70;;;;;;5057282;28;45516;-56
2021/01/31 04:09:35;;;;;;;7.05;4.47;;;22.50;44.70;;;;;;5030623;28;45465;-56
2021/01/31 04:12:03;;;;;;;6.72;4.65;;;22.50;44.70;;;;;;5032995;28;45592;-56
2021/01/31 04:14:36;;;;;;;5.68;4.30;;;22.50;44.50;;;;;;5047295;28;45455;-56
2021/01/31 04:17:02;;;;;;;6.82;4.63;;;22.50;44.50;;;;;;5051320;28;45158;-56
2021/01/31 04:19:27;;;;;;;7.10;5.10;;;22.50;44.60;;;;;;5050039;28;45598;-56
2021/01/31 04:21:53;;;;;;;6.97;4.43;;;22.60;44.60;;;;;;5049787;28;46233;-56
2021/01/31 04:24:19;;;;;;;6.55;4.68;;;22.60;44.50;;;;;;5049717;28;45358;-56
2021/01/31 04:26:45;;;;;;;6.18;4.38;;;22.60;44.50;;;;;;5049902;28;45287;-56
2021/01/31 04:29:10;;;;;;;6.97;3.70;;;22.60;44.50;;;;;;5030662;28;45638;-56
2021/01/31 04:31:36;;;;;;;6.13;4.50;;;22.60;44.40;;;;;;5046099;28;45413;-56
2021/01/31 04:34:02;;;;;;;5.68;4.40;;;22.60;44.40;;;;;;5046602;28;45336;-56
2021/01/31 04:36:28;;;;;;;6.18;4.65;;;22.70;44.40;;;;;;5046501;28;45330;-56
2021/01/31 04:38:53;;;;;;;6.57;4.70;;;22.70;44.40;;;;;;5030157;28;45396;-56
2021/01/31 04:41:19;;;;;;;6.18;4.75;;;22.70;44.40;;;;;;5046362;28;45465;-55
2021/01/31 04:43:47;;;;;;;5.88;4.07;;;22.70;44.30;;;;;;5054773;28;45332;-56
2021/01/31 04:46:16;;;;;;;6.97;4.75;;;22.70;44.30;;;;;;5066659;28;45316;-56
2021/01/31 04:48:48;;;;;;;6.22;4.40;;;22.80;44.30;;;;;;5066924;28;45514;-56
2021/01/31 04:51:25;;;;;;;6.22;4.20;;;22.80;44.20;;;;;;5049118;28;47308;-55
2021/01/31 04:54:16;;;;;;;5.50;4.07;;;22.80;44.20;;;;;;5066342;28;45356;-56
2021/01/31 04:56:42;;;;;;;5.40;3.90;;;22.80;44.20;;;;;;5067673;28;45311;-55
2021/01/31 04:59:35;;;;;;;8.15;4.72;;;22.80;44.30;;;;;;5068106;28;45478;-56
2021/01/31 05:02:15;;;;;;;7.35;4.80;;;22.90;44.20;;;;;;5052074;28;45504;-56
2021/01/31 05:04:57;;;;;;;6.75;4.53;;;22.90;44.10;;;;;;5046689;28;45373;-56
2021/01/31 05:07:30;;;;;;;6.38;4.22;;;22.90;44.10;;;;;;5041882;28;46284;-56
2021/01/31 05:09:55;;;;;;;6.97;4.30;;;22.80;44.10;;;;;;5046523;28;45499;-56
2021/01/31 05:12:36;;;;;;;6.90;4.43;;;22.80;44.10;;;;;;5046149;28;45492;-55
2021/01/31 05:15:19;;;;;;;7.05;5.00;;;22.90;44.00;;;;;;5064564;28;45453;-56
2021/01/31 05:17:45;;;;;;;5.47;4.20;;;22.90;44.10;;;;;;5064679;28;45338;-56
2021/01/31 05:20:11;;;;;;;7.25;4.68;;;22.90;44.10;;;;;;5048272;28;45454;-56
2021/01/31 05:22:42;;;;;;;5.85;4.32;;;22.90;44.10;;;;;;5047806;28;46290;-56
2021/01/31 05:25:10;;;;;;;6.78;4.40;;;22.90;44.10;;;;;;5045604;28;45203;-56
2021/01/31 05:27:36;;;;;;;6.72;4.35;;;23.00;44.20;;;;;;5048174;28;45501;-57
2021/01/31 05:30:02;;;;;;;7.05;4.53;;;23.00;44.10;;;;;;5065151;28;45469;-56
2021/01/31 05:32:28;;;;;;;5.85;4.30;;;23.00;44.00;;;;;;5062012;28;45854;-56
2021/01/31 05:34:55;;;;;;;6.45;4.60;;;23.00;44.00;;;;;;5043551;28;45508;-56
2021/01/31 05:37:41;;;;;;;7.43;4.57;;;23.00;44.00;;;;;;5059484;28;45859;-56
2021/01/31 05:40:10;;;;;;;5.85;4.35;;;23.10;44.00;;;;;;5060768;28;45134;-57
2021/01/31 05:42:43;;;;;;;6.38;4.32;;;23.10;44.00;;;;;;5064162;28;46148;-57
2021/01/31 05:45:29;;;;;;;7.10;4.68;;;23.10;44.00;;;;;;5062134;28;45626;-56
2021/01/31 05:47:54;;;;;;;6.63;4.18;;;23.10;43.90;;;;;;5060944;28;45422;-56
2021/01/31 05:50:29;;;;;;;6.15;4.20;;;23.20;43.90;;;;;;5046589;28;45446;-56
2021/01/31 05:52:55;;;;;;;8.13;4.43;;;23.20;43.80;;;;;;5052359;28;45287;-56
2021/01/31 05:55:31;;;;;;;6.50;4.20;;;23.30;43.80;;;;;;5043153;28;45398;-57
2021/01/31 05:58:19;;;;;;;5.75;4.45;;;23.40;43.80;;;;;;5027777;28;45424;-56
2021/01/31 06:00:45;;;;;;;5.70;4.13;;;23.40;43.70;;;;;;5022033;28;46458;-56
2021/01/31 06:03:11;;;;;;;6.47;4.60;;;23.40;43.70;;;;;;5044764;28;45466;-55
2021/01/31 06:05:37;;;;;;;6.63;4.50;;;23.40;43.60;;;;;;5028672;28;45536;-57
2021/01/31 06:08:05;;;;;;;6.03;4.53;;;23.50;43.60;;;;;;5046468;28;45476;-56
2021/01/31 06:10:31;;;;;;;6.40;4.78;;;23.50;43.60;;;;;;5064162;28;45566;-55
2021/01/31 06:13:07;;;;;;;6.70;4.50;;;23.50;43.50;;;;;;5032797;28;46615;-56
2021/01/31 06:15:58;;;;;;;6.10;4.28;;;23.50;43.50;;;;;;5048925;28;45975;-57
2021/01/31 06:18:42;;;;;;;5.97;4.05;;;23.50;43.50;;;;;;5052248;28;45435;-56
2021/01/31 06:21:16;;;;;;;6.20;4.43;;;23.50;43.40;;;;;;5050884;28;45558;-56
2021/01/31 06:23:47;;;;;;;6.38;4.43;;;23.50;43.50;;;;;;5067416;28;46141;-56
2021/01/31 06:26:28;;;;;;;6.80;4.55;;;23.60;43.50;;;;;;5048421;28;45672;-57
2021/01/31 06:29:00;;;;;;;6.50;4.60;;;23.60;43.40;;;;;;5055170;28;45270;-56
2021/01/31 06:31:31;;;;;;;5.95;3.88;;;23.60;43.40;;;;;;5033221;28;45596;-56
2021/01/31 06:33:57;;;;;;;5.90;4.20;;;23.60;43.40;;;;;;5048965;28;46500;-56
2021/01/31 06:36:40;;;;;;;6.57;4.07;;;23.70;43.40;;;;;;5048403;28;45424;-56
2021/01/31 06:39:34;;;;;;;6.60;4.18;;;23.70;43.30;;;;;;5049205;28;45600;-56
2021/01/31 06:42:06;;;;;;;5.47;3.75;;;23.70;43.30;;;;;;5051577;28;45712;-55
2021/01/31 06:44:34;;;;;;;7.22;4.53;;;23.70;43.30;;;;;;5065363;28;45410;-56
2021/01/31 06:47:53;;;;;;;6.82;4.63;;;23.80;43.30;;;;;;5065411;28;45767;-56
2021/01/31 06:50:40;;;;;;;5.63;4.00;;;23.80;43.20;;;;;;5011228;28;45391;-56
2021/01/31 06:53:21;;;;;;;6.55;3.92;;;23.80;43.20;;;;;;5047166;28;45333;-56
2021/01/31 06:56:05;;;;;;;5.85;4.07;;;23.90;43.30;;;;;;5065950;28;46180;-57
2021/01/31 06:58:58;;;;;;;5.57;4.15;;;23.90;43.20;;;;;;5066476;28;45414;-56
2021/01/31 07:01:30;;;;;;;6.07;4.20;;;23.90;43.20;;;;;;5063562;28;45553;-56
2021/01/31 07:04:14;;;;;;;6.65;4.10;;;23.90;43.20;;;;;;5067522;28;45461;-56
2021/01/31 07:07:42;;;;;;;5.55;3.90;;;23.80;43.10;;;;;;5061189;28;46426;-57
2021/01/31 07:10:47;;;;;;;7.72;3.92;;;23.90;43.10;;;;;;5042360;28;45542;-56
2021/01/31 07:13:24;;;;;;;6.32;4.00;;;23.80;43.10;;;;;;5066477;28;45518;-56
2021/01/31 07:15:57;;;;;;;6.43;4.30;;;23.80;43.00;;;;;;5066386;28;45271;-56
2021/01/31 07:18:23;;;;;;;5.93;4.00;;;23.80;43.20;;;;;;5063576;28;45394;-56
2021/01/31 07:20:53;;;;;;;6.28;4.13;;;23.80;43.10;;;;;;5049278;28;45409;-55
2021/01/31 07:23:22;;;;;;;6.63;4.50;;;23.90;43.10;;;;;;5049684;28;45331;-55
2021/01/31 07:25:59;;;;;;;6.38;4.47;;;23.80;43.00;;;;;;5068918;28;45403;-55
2021/01/31 07:28:30;;;;;;;5.70;3.80;;;23.80;43.00;;;;;;5067690;28;46028;-56
2021/01/31 07:31:03;;;;;;;6.43;4.25;;;23.80;43.10;;;;;;5068786;28;45229;-56
2021/01/31 07:33:47;;;;;;;5.80;4.30;;;23.80;43.10;;;;;;5067588;28;45397;-56
2021/01/31 07:36:21;;;;;;;6.87;4.53;;;23.90;43.20;;;;;;5067997;28;45310;-56
2021/01/31 07:39:16;;;;;;;6.68;4.28;;;23.90;43.10;;;;;;5068580;28;45302;-55
2021/01/31 07:41:52;;;;;;;6.22;4.00;;;23.90;43.60;;;;;;5067089;28;45263;-55
2021/01/31 07:44:20;;;;;;;5.90;3.83;;;24.00;43.00;;;;;;5049556;28;45394;-52
2021/01/31 07:46:45;;;;;;;6.82;4.10;;;24.00;43.00;;;;;;5050099;28;45435;-55
2021/01/31 07:49:11;;;;;;;5.90;4.20;;;24.00;43.00;;;;;;5049034;28;46341;-56
2021/01/31 07:51:38;;;;;;;6.72;4.63;;;24.10;43.00;;;;;;5049105;28;45345;-55
2021/01/31 07:54:24;;;;;;;7.18;4.78;;;24.10;42.90;;;;;;5066597;28;45320;-55
2021/01/31 07:56:50;;;;;;;7.65;4.50;;;24.10;42.80;;;;;;5065012;28;45532;-55
2021/01/31 07:59:19;;;;;;;7.25;4.85;;;24.10;42.80;;;;;;5047187;28;45588;-54
2021/01/31 08:01:50;;;;;;;7.78;4.05;;;24.10;42.80;;;;;;5065453;28;45493;-55
2021/01/31 08:04:18;;;;;;;6.28;4.35;;;24.10;42.80;;;;;;5055886;28;45390;-55
2021/01/31 08:06:48;;;;;;;6.13;3.95;;;24.10;42.90;;;;;;5060469;28;45551;-56
2021/01/31 08:09:29;;;;;;;6.82;4.30;;;24.10;42.80;;;;;;5063072;28;46154;-56
2021/01/31 08:12:07;;;;;;;5.43;3.70;;;24.10;42.90;;;;;;5064154;28;45427;-56
2021/01/31 08:15:02;;;;;;;5.75;4.03;;;24.10;42.90;;;;;;5062585;28;45302;-56
2021/01/31 08:17:41;;;;;;;5.82;4.00;;;24.10;42.90;;;;;;5065251;28;45413;-57
2021/01/31 08:20:31;;;;;;;5.88;4.00;;;24.10;43.10;;;;;;5066103;28;45400;-56
2021/01/31 08:22:59;;;;;;;6.65;3.97;;;24.10;43.10;;;;;;5064586;28;45453;-56
2021/01/31 08:25:29;;;;;;;6.45;4.50;;;24.00;43.10;;;;;;5049068;28;45422;-57
2021/01/31 08:28:01;;;;;;;7.80;4.38;;;24.00;43.20;;;;;;5046947;28;45443;-59
2021/01/31 08:30:32;;;;;;;7.03;4.28;;;23.90;43.40;;;;;;5060142;28;46226;-59
2021/01/31 08:32:58;;;;;;;7.78;4.20;;;23.90;43.40;;;;;;5064846;28;45432;-58
2021/01/31 08:35:44;;;;;;;6.85;4.55;;;23.90;43.50;;;;;;5067934;28;45352;-59
2021/01/31 08:38:25;;;;;;;10.93;4.20;;;23.90;43.60;;;;;;5060805;28;45621;-59
2021/01/31 08:41:02;;;;;;;17.67;8.00;;;23.90;43.50;;;;;;5047211;28;45698;-60
2021/01/31 08:43:43;;;;;;;22.75;9.40;;;23.80;39.90;;;;;;5055884;28;45598;-61
2021/01/31 08:46:28;;;;;;;14.25;8.40;;;23.50;36.70;;;;;;5067283;28;45427;-62
2021/01/31 08:48:57;;;;;;;12.27;9.20;;;23.30;36.30;;;;;;5052763;28;45411;-62
2021/01/31 08:51:27;;;;;;;13.95;8.93;;;23.10;36.10;;;;;;5067345;28;45896;-59
2021/01/31 08:54:10;;;;;;;9.95;7.85;;;22.90;34.90;;;;;;5032885;28;45323;-59
2021/01/31 08:56:46;;;;;;;10.70;8.00;;;22.80;32.90;;;;;;5056074;28;45483;-58
2021/01/31 08:59:25;;;;;;;17.15;9.60;;;22.90;36.50;;;;;;5044791;28;45558;-60
2021/01/31 09:02:01;;;;;;;11.93;9.13;;;22.70;34.10;;;;;;5028711;28;45439;-60
2021/01/31 09:04:27;;;;;;;16.30;9.55;;;22.60;33.30;;;;;;5038068;28;45424;-60
2021/01/31 09:06:53;;;;;;;12.15;8.63;;;22.40;33.80;;;;;;5028280;28;45304;-60
2021/01/31 09:09:28;;;;;;;13.77;9.05;;;22.30;33.90;;;;;;5046759;28;45308;-59
2021/01/31 09:12:01;;;;;;;15.30;10.73;;;22.20;33.60;;;;;;5047648;28;46476;-61
2021/01/31 09:14:28;;;;;;;12.75;9.65;;;22.10;33.30;;;;;;5064711;28;45355;-61
2021/01/31 09:17:11;;;;;;;14.68;8.98;;;22.00;33.20;;;;;;5047481;28;45375;-60
2021/01/31 09:19:37;;;;;;;15.18;9.05;;;22.20;34.70;;;;;;5049316;28;45588;-60
2021/01/31 09:22:19;;;;;;;14.48;9.15;;;22.40;36.30;;;;;;5035974;28;45849;-63
2021/01/31 09:24:46;;;;;;;14.25;8.45;;;22.60;37.10;;;;;;5027350;28;45420;-62
2021/01/31 09:27:19;;;;;;;13.73;7.45;;;22.70;37.50;;;;;;5011665;28;45538;-62
2021/01/31 09:29:46;;;;;;;11.63;7.20;;;22.90;37.70;;;;;;5034516;28;46522;-63
2021/01/31 09:32:23;;;;;;;17.55;7.85;;;23.00;38.10;;;;;;5041715;28;46575;-63
2021/01/31 09:34:49;;;;;;;15.15;8.07;;;23.10;38.40;;;;;;5037602;28;45512;-64
2021/01/31 09:37:23;;;;;;;13.65;7.47;;;23.20;38.50;;;;;;5037455;28;45486;-63
2021/01/31 09:39:48;;;;;;;14.63;8.23;;;23.30;38.60;;;;;;5057235;28;45504;-63
2021/01/31 09:42:14;;;;;;;11.93;7.57;;;23.20;37.70;;;;;;5036280;28;46519;-63
2021/01/31 09:44:40;;;;;;;11.40;7.13;;;23.00;36.30;;;;;;5042049;28;45468;-63
2021/01/31 09:47:06;;;;;;;10.68;6.95;;;22.80;35.70;;;;;;5048421;28;45345;-63
2021/01/31 09:49:32;;;;;;;15.60;8.55;;;22.70;34.50;;;;;;5055295;28;45691;-63
2021/01/31 09:52:08;;;;;;;19.67;8.80;;;22.60;34.40;;;;;;5035636;28;47758;-64
2021/01/31 09:54:34;;;;;;;13.93;9.13;;;22.50;34.10;;;;;;5036796;28;45800;-63
2021/01/31 09:57:03;;;;;;;15.45;9.00;;;22.40;34.30;;;;;;5044188;28;45651;-64
2021/01/31 09:59:35;;;;;;;14.27;9.07;;;22.40;33.70;;;;;;5038722;28;45409;-66
2021/01/31 10:02:02;;;;;;;12.13;9.05;;;22.30;32.80;;;;;;5037264;28;47493;-65
2021/01/31 10:04:28;;;;;;;15.18;9.63;;;22.20;33.10;;;;;;5051018;28;45396;-64
2021/01/31 10:07:08;;;;;;;13.75;9.10;;;22.20;33.20;;;;;;5050131;28;45387;-66
2021/01/31 10:09:39;;;;;;;14.07;8.75;;;22.30;32.40;;;;;;5047486;28;45463;-64
2021/01/31 10:12:32;;;;;;;12.07;8.82;;;22.10;31.50;;;;;;5049128;28;45827;-65
2021/01/31 10:15:01;;;;;;;11.18;8.10;;;21.90;29.40;;;;;;5057103;28;45436;-66
2021/01/31 10:17:30;;;;;;;12.30;9.27;;;21.80;30.00;;;;;;5065927;28;45358;-63
2021/01/31 10:20:37;;;;;;;12.57;10.10;;;21.70;29.20;;;;;;5060192;28;45567;-64
2021/01/31 10:23:21;;;;;;;15.43;11.40;;;21.40;27.30;;;;;;5062210;28;45386;-65
2021/01/31 10:26:00;;;;;;;14.73;11.18;;;20.90;26.30;;;;;;5038995;28;45451;-66
2021/01/31 10:28:31;;;;;;;15.07;9.85;;;20.60;26.90;;;;;;5061907;28;45227;-64
2021/01/31 10:30:58;;;;;;;14.60;11.02;;;20.80;28.70;;;;;;5056098;28;45763;-65
2021/01/31 10:33:39;;;;;;;18.50;10.43;;;20.90;29.40;;;;;;5048622;28;45457;-64
2021/01/31 10:36:37;;;;;;;15.15;9.70;;;21.20;29.60;;;;;;5058106;28;45428;-65
2021/01/31 10:39:09;;;;;;;20.48;12.27;;;21.40;29.90;;;;;;5048391;28;45481;-65
2021/01/31 10:41:38;;;;;;;21.80;12.90;;;21.60;31.50;;;;;;5051994;28;45344;-64
2021/01/31 10:44:05;;;;;;;28.50;13.55;;;21.80;32.20;;;;;;5047595;28;45562;-65
2021/01/31 10:46:31;;;;;;;26.27;13.88;;;22.00;32.60;;;;;;5048515;28;45402;-65
2021/01/31 10:48:57;;;;;;;24.10;12.55;;;22.20;33.10;;;;;;5031691;28;45339;-65
2021/01/31 10:51:24;;;;;;;24.45;12.45;;;22.30;33.50;;;;;;5048585;28;45620;-65
2021/01/31 10:53:49;;;;;;;23.83;12.07;;;22.40;33.80;;;;;;5030566;28;45375;-65
2021/01/31 10:56:15;;;;;;;27.35;10.80;;;22.50;34.00;;;;;;5031090;28;45368;-65
2021/01/31 10:58:41;;;;;;;23.17;11.57;;;22.60;34.20;;;;;;5041234;28;45470;-63
2021/01/31 11:01:07;;;;;;;26.83;10.55;;;22.60;34.20;;;;;;5046504;28;45673;-62
2021/01/31 11:03:32;;;;;;;22.17;12.52;;;22.80;35.10;;;;;;5046607;28;45756;-65
2021/01/31 11:05:58;;;;;;;21.98;11.50;;;22.80;34.80;;;;;;5045382;28;45722;-63
2021/01/31 11:08:25;;;;;;;25.02;12.40;;;22.80;35.00;;;;;;5048193;28;45434;-62
2021/01/31 11:10:51;;;;;;;23.38;10.98;;;22.90;35.80;;;;;;5045958;28;45552;-63
2021/01/31 11:13:17;;;;;;;23.13;9.80;;;22.90;35.30;;;;;;5047622;28;46147;-62
2021/01/31 11:15:43;;;;;;;26.20;12.00;;;22.90;35.40;;;;;;5042163;28;45646;-63
2021/01/31 11:18:08;;;;;;;22.17;12.07;;;22.90;35.50;;;;;;5054477;28;45457;-62
2021/01/31 11:20:34;;;;;;;21.30;9.90;;;22.90;35.70;;;;;;5047569;28;45549;-62
2021/01/31 11:23:00;;;;;;;24.90;11.52;;;22.90;35.70;;;;;;5054112;28;45404;-62
2021/01/31 11:25:25;;;;;;;25.08;10.18;;;22.90;35.90;;;;;;5037873;28;45406;-63
2021/01/31 11:27:51;;;;;;;21.80;10.45;;;22.90;36.00;;;;;;5038995;28;45701;-63
2021/01/31 11:30:17;;;;;;;22.13;10.20;;;22.90;36.30;;;;;;5036561;28;45359;-63
2021/01/31 11:32:43;;;;;;;20.73;10.70;;;22.90;36.50;;;;;;5046700;28;45914;-57
2021/01/31 11:35:09;;;;;;;21.13;11.07;;;23.00;36.60;;;;;;5053759;28;45454;-59
2021/01/31 11:37:34;;;;;;;24.10;12.60;;;23.00;36.60;;;;;;5053792;28;45727;-58
2021/01/31 11:40:00;;;;;;;25.20;12.75;;;23.00;37.30;;;;;;5038281;28;45699;-59
2021/01/31 11:42:26;;;;;;;27.30;14.02;;;23.10;37.60;;;;;;5032440;28;46550;-59
2021/01/31 11:44:51;;;;;;;38.13;15.15;;;23.10;37.80;;;;;;5017587;28;46734;-57
2021/01/31 11:47:17;;;;;;;33.45;15.55;;;23.10;38.20;;;;;;5032158;28;45491;-56
2021/01/31 11:49:43;;;;;;;45.80;20.00;;;23.20;38.70;;;;;;5057609;28;45713;-58
2021/01/31 11:52:09;;;;;;;49.17;19.10;;;23.10;39.50;;;;;;5048615;28;46333;-60
2021/01/31 11:54:34;;;;;;;38.95;18.42;;;23.20;39.40;;;;;;5051570;28;45381;-59
2021/01/31 11:57:00;;;;;;;50.08;19.42;;;23.20;39.70;;;;;;5032709;28;45499;-59
2021/01/31 11:59:26;;;;;;;42.88;19.25;;;23.20;40.10;;;;;;5044998;28;45588;-57
2021/01/31 12:01:51;;;;;;;44.33;18.88;;;23.20;40.30;;;;;;5033416;28;45369;-58
2021/01/31 12:04:17;;;;;;;43.08;18.60;;;23.30;39.80;;;;;;5039645;28;45327;-59
2021/01/31 12:06:43;;;;;;;39.42;19.02;;;23.30;39.80;;;;;;5047630;28;45444;-59
2021/01/31 12:09:09;;;;;;;46.30;19.58;;;23.30;40.60;;;;;;5039203;28;45514;-58
2021/01/31 12:11:35;;;;;;;46.08;18.73;;;23.30;40.10;;;;;;5027930;28;46707;-57
2021/01/31 12:14:01;;;;;;;49.75;20.48;;;23.40;39.80;;;;;;5044882;28;45422;-58
2021/01/31 12:16:27;;;;;;;47.45;18.65;;;23.40;39.90;;;;;;5034983;28;45481;-60
2021/01/31 12:18:52;;;;;;;46.22;18.55;;;23.50;39.70;;;;;;5055628;28;45431;-59
2021/01/31 12:21:18;;;;;;;37.28;16.88;;;23.50;39.60;;;;;;5042204;28;45353;-57
2021/01/31 12:23:44;;;;;;;48.45;20.05;;;23.50;39.50;;;;;;5040722;28;45350;-59
2021/01/31 12:26:09;;;;;;;39.88;18.27;;;23.60;39.40;;;;;;5053044;28;45659;-59
2021/01/31 12:28:35;;;;;;;44.53;19.52;;;23.70;39.30;;;;;;5043987;28;45416;-58
2021/01/31 12:31:01;;;;;;;38.90;19.05;;;23.70;39.10;;;;;;5044813;28;46540;-59
2021/01/31 12:33:26;;;;;;;35.28;17.42;;;23.70;39.10;;;;;;5037693;28;45414;-57
2021/01/31 12:35:52;;;;;;;40.72;18.52;;;23.70;39.00;;;;;;5058003;28;45375;-59
2021/01/31 12:38:18;;;;;;;40.15;18.05;;;23.70;39.60;;;;;;5035726;28;45507;-59
2021/01/31 12:40:44;;;;;;;33.65;16.35;;;23.80;39.10;;;;;;5032194;28;46469;-59
2021/01/31 12:43:09;;;;;;;40.38;17.08;;;23.80;39.10;;;;;;5036211;28;45489;-58
2021/01/31 12:45:35;;;;;;;35.00;16.38;;;23.90;39.10;;;;;;5039483;28;45438;-57
2021/01/31 12:48:01;;;;;;;40.28;18.30;;;23.90;39.10;;;;;;5040753;28;45577;-59
2021/01/31 12:50:29;;;;;;;23.27;13.98;;;23.90;39.10;;;;;;5047610;28;45882;-60
2021/01/31 12:52:55;;;;;;;27.85;13.98;;;23.60;37.40;;;;;;5059024;28;45485;-59
2021/01/31 12:55:20;;;;;;;32.15;15.82;;;23.40;38.00;;;;;;5047466;28;45319;-59
2021/01/31 12:57:46;;;;;;;32.17;15.45;;;23.40;37.90;;;;;;5048622;28;45525;-59
2021/01/31 13:00:14;;;;;;;26.50;13.80;;;23.30;38.40;;;;;;5040671;28;45486;-62
2021/01/31 13:02:40;;;;;;;23.40;12.20;;;23.30;38.70;;;;;;5044889;28;45591;-59